Time;durP1;ratioP1;P1;durP2;ratioP2;P2;SDS_P1;SDS_P2;PMS_P1;PMS_P2;Temp;Humidity;BMP_temperature;BMP_pressure;BME280_temperature;BME280_humidity;BME280_pressure;Samples;Min_cycle;Max_cycle;Signal;HPM_P1;HPM_P2
2022/08/13 00:01:37;;;;;;;6.32;3.60;;;;;;;20.14;49.93;101545.91;5045478;28;20017;-70
2022/08/13 00:04:07;;;;;;;7.95;3.85;;;;;;;20.06;50.27;101532.50;5045136;28;20116;-70
2022/08/13 00:09:04;;;;;;;8.98;4.10;;;;;;;19.91;51.16;101544.47;5045355;28;20032;-69
2022/08/13 00:14:15;;;;;;;9.38;3.83;;;;;;;19.73;52.63;101537.47;5045285;28;20115;-70
2022/08/13 00:16:40;;;;;;;7.43;3.72;;;;;;;19.68;53.06;101549.44;5045007;28;20043;-69
2022/08/13 00:19:05;;;;;;;9.10;3.80;;;;;;;19.68;53.13;101541.09;5044490;28;20116;-70
2022/08/13 00:21:32;;;;;;;6.35;3.58;;;;;;;19.65;53.18;101546.38;5044585;28;20068;-69
2022/08/13 00:23:57;;;;;;;10.52;4.13;;;;;;;19.54;53.17;101548.25;5045066;28;20033;-70
2022/08/13 00:26:25;;;;;;;7.97;4.25;;;;;;;19.49;54.51;101548.25;5026173;28;20021;-70
2022/08/13 00:28:53;;;;;;;6.15;3.80;;;;;;;19.44;54.32;101546.28;5053293;28;20024;-69
2022/08/13 00:31:18;;;;;;;9.00;4.22;;;;;;;19.43;55.50;101547.38;5065150;28;20446;-69
2022/08/13 00:33:44;;;;;;;7.30;4.03;;;;;;;19.36;55.46;101541.25;5064210;28;20020;-69
2022/08/13 00:36:09;;;;;;;8.55;4.10;;;;;;;19.33;55.53;101541.78;5063967;28;20086;-69
2022/08/13 00:38:35;;;;;;;9.45;4.28;;;;;;;19.26;55.13;101541.19;5065023;28;20031;-69
2022/08/13 00:41:00;;;;;;;7.72;3.75;;;;;;;19.25;54.94;101539.50;5063119;28;20028;-70
2022/08/13 00:43:30;;;;;;;7.35;3.83;;;;;;;19.18;55.64;101544.50;5063876;28;20027;-69
2022/08/13 00:45:56;;;;;;;8.60;4.05;;;;;;;19.14;55.75;101537.78;5061152;28;20032;-69
2022/08/13 00:51:08;;;;;;;7.60;4.22;;;;;;;19.04;56.52;101543.31;5043858;28;20044;-69
2022/08/13 00:53:39;;;;;;;7.35;4.28;;;;;;;19.01;57.53;101544.69;5044714;28;20040;-70
2022/08/13 00:56:05;;;;;;;8.65;4.15;;;;;;;19.02;56.61;101549.16;5043509;28;20052;-69
2022/08/13 00:58:33;;;;;;;8.63;3.88;;;;;;;18.88;57.57;101550.72;5044589;28;20020;-69
2022/08/13 01:00:59;;;;;;;7.57;3.95;;;;;;;18.88;57.43;101545.16;5044111;28;20024;-69
2022/08/13 01:03:29;;;;;;;7.15;4.53;;;;;;;18.73;57.94;101554.25;5044195;28;20039;-69
2022/08/13 01:05:58;;;;;;;7.15;3.85;;;;;;;18.72;57.96;101551.75;5039873;28;20175;-70
2022/08/13 01:08:24;;;;;;;9.05;3.78;;;;;;;18.64;58.29;101550.25;5043769;28;20029;-70
2022/08/13 01:10:49;;;;;;;8.95;4.57;;;;;;;18.59;59.02;101553.00;5050981;22;20025;-69
2022/08/13 01:13:17;;;;;;;8.90;4.05;;;;;;;18.53;58.90;101549.34;5018850;28;20040;-69
2022/08/13 01:15:44;;;;;;;6.78;4.07;;;;;;;18.45;59.40;101549.88;5023384;28;20026;-69
2022/08/13 01:18:14;;;;;;;7.88;4.18;;;;;;;18.42;59.58;101544.81;5023224;28;20076;-69
2022/08/13 01:20:48;;;;;;;8.68;4.38;;;;;;;18.34;59.29;101556.44;5023107;28;20037;-69
2022/08/13 01:23:14;;;;;;;8.63;3.90;;;;;;;18.28;60.18;101549.16;5022886;28;20025;-70
2022/08/13 01:25:42;;;;;;;7.55;4.40;;;;;;;18.19;60.68;101556.28;5022577;28;20736;-69
2022/08/13 01:28:08;;;;;;;7.68;4.07;;;;;;;18.21;60.37;101552.16;5023543;28;20961;-69
2022/08/13 01:30:34;;;;;;;7.13;4.05;;;;;;;18.25;59.54;101558.00;5032973;28;20040;-69
2022/08/13 01:33:08;;;;;;;9.13;4.20;;;;;;;18.17;59.60;101553.78;5043012;28;20103;-69
2022/08/13 01:35:34;;;;;;;8.02;4.28;;;;;;;18.24;59.47;101562.75;5042786;28;20086;-69
2022/08/13 01:37:59;;;;;;;9.00;4.13;;;;;;;18.25;60.09;101558.00;5024537;28;20121;-69
2022/08/13 01:40:25;;;;;;;10.57;4.00;;;;;;;18.17;60.00;101558.50;5042301;28;20422;-70
2022/08/13 01:42:51;;;;;;;9.48;4.18;;;;;;;18.15;60.67;101565.19;5042989;28;20025;-68
2022/08/13 01:45:17;;;;;;;7.50;4.28;;;;;;;18.08;61.29;101564.53;5043011;28;20111;-68
2022/08/13 01:50:30;;;;;;;7.43;4.15;;;;;;;18.07;60.20;101562.88;5042478;28;20101;-69
2022/08/13 01:53:08;;;;;;;8.48;3.95;;;;;;;18.06;61.37;101554.81;5042378;28;20025;-69
2022/08/13 01:55:42;;;;;;;6.43;4.60;;;;;;;17.99;61.21;101554.16;5041917;28;20566;-69
2022/08/13 01:58:22;;;;;;;6.65;4.05;;;;;;;17.95;61.17;101553.03;5042132;28;20024;-69
2022/08/13 02:00:50;;;;;;;8.35;4.78;;;;;;;17.83;61.97;101551.22;5042866;28;20120;-69
2022/08/13 02:03:19;;;;;;;6.75;4.28;;;;;;;17.77;62.24;101551.44;5027282;28;20087;-68
2022/08/13 02:05:47;;;;;;;8.25;4.50;;;;;;;17.70;62.53;101545.22;5006995;28;20032;-69
2022/08/13 02:08:14;;;;;;;8.63;4.93;;;;;;;17.64;62.75;101544.34;5003146;28;20387;-69
2022/08/13 02:10:42;;;;;;;9.43;4.65;;;;;;;17.64;62.81;101547.13;5001675;28;20046;-69
2022/08/13 02:13:16;;;;;;;7.40;4.22;;;;;;;17.60;62.91;101552.34;5002798;28;20464;-69
2022/08/13 02:15:44;;;;;;;7.97;4.45;;;;;;;17.57;63.35;101550.09;5002725;28;20029;-69
2022/08/13 02:18:20;;;;;;;8.25;4.22;;;;;;;17.56;63.79;101548.41;5002342;28;20056;-69
2022/08/13 02:20:57;;;;;;;9.25;4.22;;;;;;;17.51;63.38;101548.34;5002573;28;20120;-69
2022/08/13 02:23:25;;;;;;;8.45;4.22;;;;;;;17.45;64.17;101545.78;5002550;28;20149;-69
2022/08/13 02:25:51;;;;;;;6.45;4.20;;;;;;;17.41;63.91;101547.41;5001668;28;20034;-69
2022/08/13 02:28:19;;;;;;;7.47;4.30;;;;;;;17.34;64.48;101547.59;5003255;28;20109;-69
2022/08/13 02:30:47;;;;;;;8.20;4.40;;;;;;;17.33;64.19;101545.91;5002388;28;20030;-69
2022/08/13 02:33:13;;;;;;;11.25;4.32;;;;;;;17.32;64.38;101556.16;5002206;28;20357;-69
2022/08/13 02:35:40;;;;;;;7.57;4.28;;;;;;;17.26;64.43;101550.81;5002145;28;20022;-69
2022/08/13 02:38:05;;;;;;;7.20;4.18;;;;;;;17.21;64.64;101548.81;5002015;28;20026;-69
2022/08/13 02:43:30;;;;;;;7.70;4.10;;;;;;;17.12;64.63;101540.09;4979371;28;20503;-69
2022/08/13 02:45:55;;;;;;;8.35;4.20;;;;;;;17.12;65.11;101550.34;5002454;28;20022;-69
2022/08/13 02:48:24;;;;;;;8.68;4.65;;;;;;;17.11;65.93;101548.69;5002523;28;20029;-69
2022/08/13 02:50:51;;;;;;;6.82;4.10;;;;;;;17.09;65.38;101540.63;5001826;28;20420;-69
2022/08/13 02:53:18;;;;;;;9.48;4.43;;;;;;;17.08;65.02;101547.28;5021090;28;20030;-69
2022/08/13 02:55:45;;;;;;;8.32;4.20;;;;;;;17.05;65.59;101544.16;5021363;28;20685;-69
2022/08/13 02:58:10;;;;;;;7.43;4.72;;;;;;;17.07;65.13;101544.72;5004060;28;20265;-69
2022/08/13 03:00:36;;;;;;;9.38;4.38;;;;;;;17.03;64.50;101547.22;5002200;28;20516;-69
2022/08/13 03:03:03;;;;;;;7.82;4.47;;;;;;;17.05;64.44;101550.56;5002422;28;20030;-69
2022/08/13 03:05:31;;;;;;;8.20;4.40;;;;;;;17.04;63.81;101556.38;5001855;28;20029;-69
2022/08/13 03:07:57;;;;;;;;;;;;;;;17.22;61.55;101544.09;5005408;28;20053;-69
2022/08/13 03:10:27;;;;;;;8.05;4.50;;;;;;;17.00;64.13;101544.09;5005501;28;20378;-69
2022/08/13 03:12:58;;;;;;;6.68;4.30;;;;;;;16.94;64.65;101547.91;5005574;28;20092;-69
2022/08/13 03:15:25;;;;;;;7.55;4.07;;;;;;;16.87;65.58;101550.84;5045925;28;20033;-69
2022/08/13 03:17:50;;;;;;;7.25;4.40;;;;;;;16.84;66.21;101552.22;5045352;28;20055;-69
2022/08/13 03:20:16;;;;;;;9.18;5.00;;;;;;;16.79;66.86;101552.13;5045146;28;20197;-69
2022/08/13 03:22:52;;;;;;;9.82;5.05;;;;;;;16.70;66.84;101553.63;5045583;28;20293;-69
2022/08/13 03:25:19;;;;;;;8.85;4.43;;;;;;;16.59;66.48;101555.41;5045131;28;20056;-69
2022/08/13 03:27:45;;;;;;;8.23;4.75;;;;;;;16.54;66.09;101547.00;5045560;28;20053;-69
2022/08/13 03:30:11;;;;;;;9.00;4.90;;;;;;;16.49;66.56;101548.84;5041996;28;20120;-69
2022/08/13 03:32:40;;;;;;;8.45;4.70;;;;;;;16.45;67.09;101551.28;5045475;28;20521;-69
2022/08/13 03:35:07;;;;;;;9.68;4.90;;;;;;;16.43;67.29;101553.50;5044281;28;20075;-69
2022/08/13 03:37:35;;;;;;;8.50;5.13;;;;;;;16.46;67.41;101552.13;5045147;28;20479;-69
2022/08/13 03:40:01;;;;;;;6.93;4.78;;;;;;;16.40;68.15;101547.59;5044480;28;20078;-69
2022/08/13 03:42:27;;;;;;;7.55;4.57;;;;;;;16.32;68.58;101552.47;5035790;28;20388;-69
2022/08/13 03:44:54;;;;;;;7.13;4.70;;;;;;;16.23;68.27;101556.75;5025360;28;20026;-69
2022/08/13 03:47:19;;;;;;;8.48;4.55;;;;;;;16.18;69.42;101550.28;5025364;28;20040;-69
2022/08/13 03:49:46;;;;;;;7.97;4.70;;;;;;;16.12;69.85;101562.34;5031855;28;20033;-69
2022/08/13 03:52:13;;;;;;;6.93;4.57;;;;;;;16.13;69.82;101559.34;5044620;28;20087;-69
2022/08/13 03:54:40;;;;;;;8.60;5.00;;;;;;;16.06;69.54;101553.13;5044470;28;20104;-67
2022/08/13 03:57:06;;;;;;;7.75;4.70;;;;;;;16.06;69.25;101553.13;5044262;28;20150;-69
2022/08/13 03:59:31;;;;;;;10.40;5.10;;;;;;;16.02;69.93;101547.25;5045114;28;20115;-69
2022/08/13 04:02:01;;;;;;;7.25;4.70;;;;;;;16.01;69.25;101553.03;5044566;28;20025;-69
2022/08/13 04:04:29;;;;;;;8.68;4.55;;;;;;;15.97;69.63;101554.63;5040736;28;20052;-68
2022/08/13 04:06:55;;;;;;;7.97;4.50;;;;;;;15.94;69.44;101552.34;5044413;28;20109;-69
2022/08/13 04:09:20;;;;;;;9.48;4.30;;;;;;;15.96;69.15;101547.41;5045067;28;20025;-69
2022/08/13 04:11:48;;;;;;;8.32;4.63;;;;;;;15.95;68.92;101552.09;5043601;28;20231;-69
2022/08/13 04:14:14;;;;;;;9.32;5.22;;;;;;;16.02;68.09;101550.03;5044661;28;20036;-69
2022/08/13 04:16:42;;;;;;;17.08;6.20;;;;;;;15.99;68.48;101550.50;5044329;28;20687;-69
2022/08/13 04:19:08;;;;;;;8.73;4.97;;;;;;;15.94;68.39;101544.88;5043044;28;20029;-69
2022/08/13 04:21:37;;;;;;;9.68;5.00;;;;;;;15.93;68.67;101543.22;5034866;28;20075;-69
2022/08/13 04:24:03;;;;;;;7.43;4.85;;;;;;;15.93;68.34;101550.69;5004233;28;20476;-69
2022/08/13 04:26:30;;;;;;;8.43;5.28;;;;;;;15.93;68.17;101548.75;5003700;28;20038;-69
2022/08/13 04:28:57;;;;;;;7.88;4.90;;;;;;;15.93;68.19;101548.75;5004263;28;20022;-69
2022/08/13 04:31:23;;;;;;;8.65;5.03;;;;;;;15.93;68.79;101554.28;5008249;28;20022;-69
2022/08/13 04:33:48;;;;;;;7.50;5.13;;;;;;;15.94;69.44;101555.97;5024441;28;20035;-69
2022/08/13 04:36:13;;;;;;;8.23;5.00;;;;;;;15.96;69.59;101559.31;5023603;28;20017;-69
2022/08/13 04:38:39;;;;;;;8.52;4.80;;;;;;;15.92;70.04;101562.84;5026333;28;20037;-69
2022/08/13 04:41:04;;;;;;;9.60;5.20;;;;;;;15.87;70.44;101560.81;5042916;28;20552;-69
2022/08/13 04:43:30;;;;;;;7.82;5.10;;;;;;;15.84;69.80;101566.84;5043844;28;20048;-69
2022/08/13 04:45:59;;;;;;;9.82;4.70;;;;;;;15.88;69.75;101561.66;5043620;28;20124;-69
2022/08/13 04:48:28;;;;;;;8.88;5.13;;;;;;;15.90;68.76;101559.47;5044002;28;20490;-69
2022/08/13 04:50:54;;;;;;;9.52;5.03;;;;;;;15.92;68.61;101551.78;5042611;28;20106;-69
2022/08/13 04:53:28;;;;;;;7.82;5.20;;;;;;;15.94;68.81;101564.28;5043884;28;20099;-69
2022/08/13 04:55:55;;;;;;;8.38;5.40;;;;;;;15.96;69.23;101564.00;5042546;28;20432;-69
2022/08/13 04:58:23;;;;;;;8.82;5.05;;;;;;;16.02;68.57;101563.88;5005317;28;20435;-70
2022/08/13 05:00:50;;;;;;;;;;;;;;;16.20;66.29;101561.94;5004787;28;20022;-69
2022/08/13 05:03:18;;;;;;;7.82;4.82;;;;;;;16.09;68.18;101561.78;5004501;28;19931;-69
2022/08/13 05:05:45;;;;;;;7.97;4.90;;;;;;;16.09;68.16;101570.09;5003572;28;20523;-70
2022/08/13 05:08:11;;;;;;;9.68;5.03;;;;;;;16.14;68.12;101572.13;5003774;28;20034;-69
2022/08/13 05:10:40;;;;;;;9.02;5.65;;;;;;;16.12;67.73;101571.53;5001977;28;20040;-70
2022/08/13 05:13:19;;;;;;;9.18;5.25;;;;;;;16.20;66.79;101565.56;5013540;28;20499;-70
2022/08/13 05:15:45;;;;;;;7.47;5.55;;;;;;;16.23;67.41;101564.25;5043657;28;20025;-69
2022/08/13 05:18:10;;;;;;;10.05;5.20;;;;;;;16.27;66.95;101565.38;5042901;28;20044;-70
2022/08/13 05:20:36;;;;;;;8.32;5.00;;;;;;;16.30;66.61;101576.81;5042681;28;20082;-69
2022/08/13 05:23:12;;;;;;;7.07;5.10;;;;;;;16.39;66.67;101568.94;5025542;28;20032;-69
2022/08/13 05:25:38;;;;;;;16.33;5.70;;;;;;;16.44;66.64;101570.97;5020911;28;20060;-70
2022/08/13 05:28:04;;;;;;;8.60;5.20;;;;;;;16.41;66.50;101577.84;5021890;28;20029;-70
2022/08/13 05:30:29;;;;;;;9.23;5.82;;;;;;;16.42;67.37;101582.28;5006089;28;20029;-70
2022/08/13 05:32:57;;;;;;;10.75;5.13;;;;;;;16.48;67.26;101578.53;5001391;28;20436;-70
2022/08/13 05:35:23;;;;;;;8.75;4.90;;;;;;;16.52;66.90;101578.84;5001570;28;20022;-70
2022/08/13 05:37:49;;;;;;;9.43;5.97;;;;;;;16.54;66.59;101573.91;5003716;28;20048;-70
2022/08/13 05:40:14;;;;;;;8.05;5.60;;;;;;;16.61;67.24;101575.38;5002126;28;20092;-70
2022/08/13 05:42:39;;;;;;;7.85;5.18;;;;;;;16.67;66.54;101564.38;5003647;28;20463;-71
2022/08/13 05:45:08;;;;;;;9.88;5.65;;;;;;;16.74;66.66;101568.69;5002981;28;20425;-70
2022/08/13 05:47:33;;;;;;;;;;;;;;;16.92;64.66;101569.50;5015741;28;20064;-70
2022/08/13 05:49:58;;;;;;;8.80;5.00;;;;;;;16.90;66.06;101569.75;5042356;28;20003;-70
2022/08/13 05:52:26;;;;;;;9.60;5.20;;;;;;;16.97;66.51;101566.78;5042265;28;20086;-70
2022/08/13 05:54:53;;;;;;;10.02;5.22;;;;;;;17.04;68.15;101570.25;5041716;28;20116;-70
2022/08/13 05:57:18;;;;;;;8.65;5.25;;;;;;;17.09;67.71;101567.53;5043169;28;20028;-70
2022/08/13 06:05:11;;;;;;;8.50;5.25;;;;;;;17.37;65.62;101570.13;5018884;28;20123;-70
2022/08/13 06:07:40;;;;;;;8.68;4.85;;;;;;;17.46;66.02;101566.91;5022231;28;20117;-70
2022/08/13 06:10:06;;;;;;;8.20;5.07;;;;;;;17.52;65.22;101563.06;5021291;28;20141;-70
2022/08/13 06:12:31;;;;;;;8.85;4.93;;;;;;;17.64;64.47;101570.19;5022307;28;20041;-70
2022/08/13 06:14:57;;;;;;;9.88;4.70;;;;;;;17.70;65.34;101562.75;5021827;28;20022;-70
2022/08/13 06:17:23;;;;;;;7.75;5.68;;;;;;;17.76;64.93;101560.88;5022340;28;20025;-70
2022/08/13 06:19:49;;;;;;;8.20;5.00;;;;;;;17.81;64.94;101558.16;5023455;28;20018;-70
2022/08/13 06:22:19;;;;;;;8.73;5.38;;;;;;;17.90;65.23;101564.94;5041663;28;20140;-70
2022/08/13 06:24:45;;;;;;;9.32;5.20;;;;;;;18.09;62.92;101568.16;5041646;28;20021;-70
2022/08/13 06:27:11;;;;;;;8.95;4.97;;;;;;;18.14;63.76;101562.66;5041854;28;20029;-71
2022/08/13 06:29:40;;;;;;;7.95;4.65;;;;;;;18.21;64.83;101570.78;5042386;28;20336;-70
2022/08/13 06:32:06;;;;;;;7.00;4.25;;;;;;;18.39;62.67;101570.38;5041560;28;20047;-70
2022/08/13 06:34:34;;;;;;;7.47;4.35;;;;;;;18.62;61.17;101570.00;5042307;28;20029;-70
2022/08/13 06:37:00;;;;;;;;;;;;;;;18.74;60.46;101571.78;5021727;28;20022;-72
2022/08/13 06:39:27;;;;;;;7.57;4.50;;;;;;;18.95;58.46;101564.41;5002001;28;19920;-70
2022/08/13 06:41:53;;;;;;;9.45;4.63;;;;;;;19.14;57.63;101565.63;5003305;28;20116;-70
2022/08/13 06:44:19;;;;;;;9.85;5.38;;;;;;;19.29;56.25;101568.50;5007066;28;20026;-70
2022/08/13 06:46:46;;;;;;;6.72;4.47;;;;;;;19.39;57.29;101578.84;5006255;28;20058;-70
2022/08/13 06:49:11;;;;;;;10.27;4.95;;;;;;;19.46;57.08;101568.28;5006366;28;20137;-70
2022/08/13 06:51:37;;;;;;;6.60;4.32;;;;;;;19.55;56.77;101563.84;5006096;28;20706;-70
2022/08/13 06:54:03;;;;;;;11.55;5.20;;;;;;;19.71;55.35;101564.78;5037862;28;20021;-69
2022/08/13 06:56:29;;;;;;;9.38;5.22;;;;;;;19.81;55.52;101561.16;5045980;28;20021;-69
2022/08/13 06:58:58;;;;;;;7.85;4.72;;;;;;;19.92;54.58;101572.09;5046281;28;20472;-70
2022/08/13 07:01:24;;;;;;;7.15;4.78;;;;;;;20.07;54.54;101576.84;5044842;28;20585;-70
2022/08/13 07:03:51;;;;;;;7.68;4.50;;;;;;;20.19;54.70;101577.41;5026804;28;20021;-69
2022/08/13 07:06:24;;;;;;;9.48;5.10;;;;;;;20.26;54.31;101574.34;5026430;28;20079;-69
2022/08/13 07:08:53;;;;;;;8.95;4.68;;;;;;;20.33;54.14;101571.31;5026347;28;20026;-69
2022/08/13 07:11:21;;;;;;;9.20;4.45;;;;;;;20.44;53.26;101576.59;5038510;28;20175;-69
2022/08/13 07:13:51;;;;;;;7.55;4.30;;;;;;;20.56;53.11;101576.34;5045253;28;20025;-69
2022/08/13 07:16:18;;;;;;;7.45;3.80;;;;;;;20.63;53.48;101576.91;5045213;28;20017;-69
2022/08/13 07:18:46;;;;;;;10.02;4.10;;;;;;;20.71;53.59;101593.06;5045209;28;20071;-69
2022/08/13 07:21:11;;;;;;;;;;;;;;;20.77;54.04;101588.31;5045228;28;20047;-69
2022/08/13 07:23:37;;;;;;;8.35;4.10;;;;;;;20.92;52.84;101582.69;5045314;28;19908;-69
2022/08/13 07:26:04;;;;;;;8.10;3.80;;;;;;;21.01;52.83;101580.19;5044612;28;20485;-69
2022/08/13 07:28:31;;;;;;;10.60;4.47;;;;;;;21.11;51.75;101588.53;5042668;28;20040;-69
2022/08/13 07:30:57;;;;;;;7.47;3.70;;;;;;;21.19;52.26;101585.16;5044959;28;20037;-69
2022/08/13 07:33:26;;;;;;;8.27;4.00;;;;;;;21.28;51.80;101585.41;5045570;28;20541;-69
2022/08/13 07:35:52;;;;;;;7.60;4.28;;;;;;;21.39;51.15;101577.84;5044891;28;20488;-69
2022/08/13 07:38:18;;;;;;;6.88;3.60;;;;;;;21.53;50.92;101573.31;5045672;28;20029;-69
2022/08/13 07:40:50;;;;;;;10.30;4.38;;;;;;;21.63;50.77;101580.81;5044731;28;20395;-69
2022/08/13 07:43:19;;;;;;;7.10;3.85;;;;;;;21.74;49.86;101582.44;5046177;28;20048;-69
2022/08/13 07:45:58;;;;;;;9.43;3.92;;;;;;;21.85;49.90;101583.25;5012463;28;20037;-69
2022/08/13 07:48:23;;;;;;;8.45;3.78;;;;;;;21.95;49.33;101588.78;5005888;28;20045;-70
2022/08/13 07:50:49;;;;;;;6.93;3.58;;;;;;;21.98;49.67;101575.03;5005239;28;20041;-69
2022/08/13 07:53:14;;;;;;;6.05;3.67;;;;;;;22.12;49.06;101580.00;5023697;28;20037;-69
2022/08/13 07:55:41;;;;;;;8.18;3.50;;;;;;;22.24;49.80;101586.06;5024784;28;20132;-69
2022/08/13 07:58:07;;;;;;;7.38;3.33;;;;;;;22.31;50.30;101582.97;5024867;28;20029;-69
2022/08/13 08:00:32;;;;;;;5.53;3.20;;;;;;;22.41;49.63;101580.06;5025243;28;20052;-69
2022/08/13 08:03:01;;;;;;;5.78;2.95;;;;;;;22.47;49.55;101582.53;5021350;28;20021;-69
2022/08/13 08:05:31;;;;;;;5.78;3.08;;;;;;;22.52;48.76;101588.09;5041790;28;20451;-69
2022/08/13 08:07:58;;;;;;;5.63;3.13;;;;;;;22.60;48.38;101586.59;5044829;28;20052;-70
2022/08/13 08:10:24;;;;;;;8.25;3.60;;;;;;;22.68;48.59;101585.16;5044279;28;20024;-69
2022/08/13 08:12:50;;;;;;;7.78;3.53;;;;;;;22.75;48.71;101586.47;5044530;28;20049;-69
2022/08/13 08:15:15;;;;;;;5.55;2.85;;;;;;;22.88;48.82;101593.38;5045183;28;20037;-70
2022/08/13 08:17:42;;;;;;;8.07;3.55;;;;;;;22.99;47.66;101592.13;5045070;28;20047;-69
2022/08/13 08:20:09;;;;;;;8.00;3.47;;;;;;;23.11;46.80;101594.53;5026263;28;20535;-69
2022/08/13 08:22:35;;;;;;;5.68;2.72;;;;;;;23.18;47.06;101595.03;5004804;28;20034;-69
2022/08/13 08:25:05;;;;;;;6.28;2.65;;;;;;;23.30;46.58;101595.44;5004335;28;20034;-70
2022/08/13 08:27:32;;;;;;;9.05;3.13;;;;;;;23.43;44.98;101590.25;5005235;28;20061;-70
2022/08/13 08:30:00;;;;;;;6.38;2.80;;;;;;;23.55;46.80;101596.25;5004620;28;20037;-69
2022/08/13 08:32:25;;;;;;;;;;;;;;;23.63;47.36;101597.59;5005380;28;20084;-70
2022/08/13 08:34:51;;;;;;;8.93;2.78;;;;;;;23.72;45.29;101587.38;5004675;28;19913;-69
2022/08/13 08:42:54;;;;;;;8.38;2.72;;;;;;;24.06;43.43;101589.97;5003680;28;20469;-70
2022/08/13 08:45:20;;;;;;;5.30;2.73;;;;;;;24.20;43.68;101587.25;5004725;28;20077;-69
2022/08/13 08:47:48;;;;;;;4.15;2.30;;;;;;;24.33;42.76;101590.13;5004251;28;20018;-70
2022/08/13 08:50:15;;;;;;;4.47;2.10;;;;;;;24.44;42.93;101585.19;5003572;28;20025;-70
2022/08/13 08:55:36;;;;;;;5.15;2.28;;;;;;;24.80;42.19;101591.03;4979631;28;20483;-70
2022/08/13 08:58:05;;;;;;;;;;;;;;;24.90;42.97;101586.38;5004404;28;20068;-69
2022/08/13 09:00:33;;;;;;;6.07;2.40;;;;;;;25.12;39.69;101586.53;5004255;28;19989;-70
2022/08/13 09:02:59;;;;;;;4.70;2.00;;;;;;;25.28;39.56;101587.88;5003928;28;20445;-70
2022/08/13 09:05:25;;;;;;;5.50;2.00;;;;;;;25.51;41.12;101579.56;5002911;28;20132;-70
2022/08/13 09:07:51;;;;;;;6.63;2.20;;;;;;;25.69;40.75;101578.56;5003454;28;20022;-69
2022/08/13 09:10:19;;;;;;;3.60;2.10;;;;;;;25.84;39.81;101581.06;5001866;28;20032;-69
2022/08/13 09:12:46;;;;;;;8.73;2.25;;;;;;;26.06;38.87;101580.31;5002620;28;20073;-69
2022/08/13 09:15:14;;;;;;;7.07;2.05;;;;;;;26.31;39.35;101581.66;5002441;28;20175;-69
2022/08/13 09:17:41;;;;;;;4.55;2.08;;;;;;;26.56;38.44;101577.41;5003501;28;20026;-69
2022/08/13 09:20:14;;;;;;;7.47;2.03;;;;;;;26.86;37.82;101578.56;4984521;28;20022;-69
2022/08/13 09:22:41;;;;;;;6.53;2.10;;;;;;;27.68;35.77;101570.63;5002989;28;20042;-69
2022/08/13 09:25:08;;;;;;;5.13;2.30;;;;;;;29.70;32.61;101574.41;5002140;28;20414;-67
2022/08/13 09:27:35;;;;;;;4.28;2.10;;;;;;;32.16;29.27;101570.97;5003699;28;20022;-68
2022/08/13 09:30:03;;;;;;;5.70;1.93;;;;;;;34.01;26.78;101575.06;5029332;28;20032;-67
2022/08/13 09:32:29;;;;;;;4.60;1.65;;;;;;;35.65;24.75;101575.34;5023322;28;20033;-66
2022/08/13 09:34:55;;;;;;;4.30;1.77;;;;;;;36.69;23.13;101579.59;5022800;28;20022;-66
2022/08/13 09:37:22;;;;;;;4.32;1.65;;;;;;;37.90;22.10;101572.91;5022539;28;20056;-65
2022/08/13 09:39:49;;;;;;;;;;;;;;;39.21;23.27;101579.50;5023335;28;20021;-65
2022/08/13 09:42:23;;;;;;;5.40;1.85;;;;;;;39.31;19.98;101575.78;5022707;28;19916;-65
2022/08/13 09:44:51;;;;;;;6.45;1.60;;;;;;;40.03;19.80;101573.63;5023740;28;20100;-65
2022/08/13 09:47:17;;;;;;;5.30;1.60;;;;;;;40.54;19.46;101566.44;5042925;28;20100;-65
2022/08/13 09:49:44;;;;;;;5.95;1.58;;;;;;;40.83;18.41;101566.25;5042380;28;20108;-65
2022/08/13 09:52:09;;;;;;;6.70;1.70;;;;;;;41.36;16.95;101565.84;5041553;28;20029;-65
2022/08/13 09:54:34;;;;;;;3.17;1.30;;;;;;;41.82;17.20;101566.66;5042023;28;20019;-66
2022/08/13 09:57:00;;;;;;;3.90;1.52;;;;;;;42.07;16.70;101566.34;5042598;28;20761;-66
2022/08/13 09:59:25;;;;;;;3.55;1.60;;;;;;;42.24;16.04;101548.84;5042197;28;20391;-66
2022/08/13 10:01:52;;;;;;;3.28;1.60;;;;;;;42.72;15.40;101556.41;5042287;28;20029;-66
2022/08/13 10:04:18;;;;;;;3.10;1.20;;;;;;;42.61;15.07;101544.19;5032025;28;20456;-65
2022/08/13 10:06:45;;;;;;;2.83;1.50;;;;;;;42.23;15.69;101552.97;5041435;28;20032;-65
2022/08/13 10:09:11;;;;;;;3.38;1.40;;;;;;;42.02;16.02;101547.44;5041622;28;20025;-64
2022/08/13 10:11:36;;;;;;;2.45;1.27;;;;;;;41.28;15.41;101546.16;5042129;28;20049;-64
2022/08/13 10:14:01;;;;;;;3.20;1.60;;;;;;;41.25;16.47;101538.34;5041896;28;20028;-64
2022/08/13 10:16:27;;;;;;;3.67;1.30;;;;;;;41.03;15.24;101535.66;5042337;28;20563;-64
2022/08/13 10:18:52;;;;;;;2.10;1.33;;;;;;;41.62;15.33;101535.53;5042062;28;20307;-65
2022/08/13 10:21:17;;;;;;;3.33;1.20;;;;;;;42.35;14.73;101536.31;5022560;28;20291;-65
2022/08/13 10:23:42;;;;;;;3.50;1.20;;;;;;;42.27;14.71;101534.78;5021682;28;20667;-65
2022/08/13 10:26:08;;;;;;;5.00;1.10;;;;;;;42.43;15.04;101532.06;5022241;28;20288;-65
2022/08/13 10:28:35;;;;;;;5.35;1.30;;;;;;;42.30;14.14;101528.16;5022663;28;20017;-65
2022/08/13 10:31:08;;;;;;;2.22;1.15;;;;;;;42.58;14.36;101533.47;5021571;28;20033;-65
2022/08/13 10:33:34;;;;;;;1.58;1.05;;;;;;;42.51;14.71;101527.81;5022073;28;20059;-65
2022/08/13 10:35:59;;;;;;;2.53;1.35;;;;;;;42.48;14.77;101520.88;5021594;28;20040;-66
2022/08/13 10:38:26;;;;;;;2.80;1.20;;;;;;;43.16;14.02;101528.47;5004441;28;20029;-66
2022/08/13 10:40:53;;;;;;;4.67;1.30;;;;;;;43.09;14.34;101514.16;5001688;28;20038;-66
2022/08/13 10:43:19;;;;;;;2.28;1.20;;;;;;;43.31;13.02;101519.53;5003203;28;20277;-66
2022/08/13 10:45:46;;;;;;;3.45;1.40;;;;;;;43.24;14.35;101520.47;5002063;28;20487;-66
2022/08/13 10:48:12;;;;;;;1.90;1.20;;;;;;;43.89;12.59;101520.06;5002154;28;20481;-66
2022/08/13 10:50:38;;;;;;;3.17;1.15;;;;;;;44.06;11.99;101518.06;5002415;28;20046;-66
2022/08/13 10:53:04;;;;;;;3.38;1.13;;;;;;;43.76;11.99;101509.16;5002368;28;20040;-66
2022/08/13 10:55:29;;;;;;;3.70;1.00;;;;;;;43.06;14.02;101515.00;5000862;28;20376;-65
2022/08/13 10:57:55;;;;;;;2.25;1.10;;;;;;;43.37;13.60;101515.69;5002219;28;20081;-66
2022/08/13 11:00:21;;;;;;;2.90;1.60;;;;;;;43.63;13.41;101511.06;5001771;28;20385;-66
2022/08/13 11:02:50;;;;;;;2.22;0.95;;;;;;;43.85;13.15;101510.63;5002823;28;20014;-65
2022/08/13 11:05:25;;;;;;;2.35;1.20;;;;;;;43.77;13.82;101501.28;5002026;28;20087;-66
2022/08/13 11:07:52;;;;;;;3.67;1.30;;;;;;;43.41;14.15;101509.84;5001624;28;20030;-67
2022/08/13 11:10:20;;;;;;;5.05;1.42;;;;;;;42.58;13.91;101507.47;5009944;28;20061;-66
2022/08/13 11:12:50;;;;;;;5.10;1.33;;;;;;;41.40;15.29;101511.88;5021863;28;20504;-66
2022/08/13 11:15:22;;;;;;;1.63;1.10;;;;;;;39.89;16.42;101513.25;5021518;28;20087;-65
2022/08/13 11:17:53;;;;;;;4.45;1.25;;;;;;;38.44;17.33;101501.41;5022307;28;20487;-65
2022/08/13 11:20:22;;;;;;;3.53;1.48;;;;;;;37.10;18.93;101500.25;5021822;28;20029;-65
2022/08/13 11:22:52;;;;;;;3.92;1.45;;;;;;;36.20;19.24;101509.13;5022540;28;20021;-65
2022/08/13 11:25:19;;;;;;;3.28;1.20;;;;;;;35.49;19.85;101503.28;5021524;28;20025;-65
2022/08/13 11:27:45;;;;;;;2.67;1.17;;;;;;;35.06;20.49;101491.97;5020336;28;20037;-65
2022/08/13 11:30:10;;;;;;;2.63;1.27;;;;;;;34.90;20.81;101496.16;5044592;28;20290;-65
2022/08/13 11:32:36;;;;;;;2.33;1.10;;;;;;;34.69;19.78;101490.91;5045411;28;20476;-65
2022/08/13 11:35:04;;;;;;;3.60;1.40;;;;;;;34.77;21.28;101487.75;5044290;28;20032;-65
2022/08/13 11:37:30;;;;;;;3.28;1.30;;;;;;;34.72;20.41;101485.22;5045308;28;20372;-65
2022/08/13 11:39:55;;;;;;;3.03;1.25;;;;;;;34.89;20.80;101475.34;5044870;28;20027;-66
2022/08/13 11:42:20;;;;;;;4.05;1.17;;;;;;;34.74;19.73;101479.97;5045076;28;20112;-67
2022/08/13 11:44:46;;;;;;;5.93;1.30;;;;;;;34.59;20.22;101478.09;5041206;28;20048;-65
2022/08/13 11:47:11;;;;;;;1.47;1.10;;;;;;;34.58;20.18;101471.56;5005492;28;20299;-65
2022/08/13 11:49:36;;;;;;;1.67;1.00;;;;;;;34.75;20.11;101475.09;5005248;28;20331;-66
2022/08/13 11:52:02;;;;;;;1.43;1.03;;;;;;;34.95;19.93;101481.59;5004704;28;20033;-66
2022/08/13 11:54:27;;;;;;;2.20;1.00;;;;;;;34.94;20.41;101475.03;5004426;28;20627;-66